Time;durP1;ratioP1;P1;durP2;ratioP2;P2;SDS_P1;SDS_P2;PMS_P1;PMS_P2;Temp;Humidity;BMP_temperature;BMP_pressure;BME280_temperature;BME280_humidity;BME280_pressure;Samples;Min_cycle;Max_cycle;Signal;HPM_P1;HPM_P2
2022/03/03 00:01:41;;;;;;;17.40;7.90;;;;;;;15.49;26.22;102107.59;5107818;27;20027;-76
2022/03/03 00:04:07;;;;;;;17.27;8.20;;;;;;;14.96;26.55;102117.72;5107190;27;20034;-76
2022/03/03 00:06:34;;;;;;;16.77;7.77;;;;;;;15.09;26.64;102114.97;5108285;27;20027;-76
2022/03/03 00:08:59;;;;;;;17.33;8.33;;;;;;;15.05;26.15;102112.38;5108048;27;20054;-76
2022/03/03 00:11:25;;;;;;;18.67;8.20;;;;;;;14.53;27.73;102118.84;5120864;27;20035;-77
2022/03/03 00:13:50;;;;;;;14.13;7.23;;;;;;;14.55;27.09;102117.13;5109471;27;20023;-76
2022/03/03 00:16:16;;;;;;;15.00;7.60;;;;;;;15.16;26.80;102107.88;5105393;27;20035;-76
2022/03/03 00:18:41;;;;;;;16.93;8.23;;;;;;;15.19;27.07;102107.00;5108336;27;20498;-76
2022/03/03 00:21:07;;;;;;;15.77;8.00;;;;;;;15.22;26.41;102114.84;5102473;27;20100;-77
2022/03/03 00:23:32;;;;;;;17.07;7.40;;;;;;;15.03;26.29;102109.78;5105454;27;20055;-77
2022/03/03 00:25:59;;;;;;;18.77;8.57;;;;;;;14.64;27.26;102111.78;5105630;27;20029;-77
2022/03/03 00:28:25;;;;;;;18.33;8.40;;;;;;;14.82;26.70;102109.94;5111013;27;20038;-76
2022/03/03 00:30:50;;;;;;;18.90;8.23;;;;;;;14.83;26.74;102111.69;5118943;27;20444;-76
2022/03/03 00:33:15;;;;;;;16.23;7.53;;;;;;;14.97;26.15;102099.28;5094449;27;20108;-77
2022/03/03 00:35:41;;;;;;;16.50;8.07;;;;;;;14.92;26.77;102101.09;5103491;27;20034;-76
2022/03/03 00:38:06;;;;;;;17.63;8.30;;;;;;;14.90;27.05;102108.97;5108239;27;20038;-77
2022/03/03 00:40:31;;;;;;;15.97;7.17;;;;;;;14.48;26.99;102120.63;5104066;27;20394;-77
2022/03/03 00:42:57;;;;;;;19.77;7.03;;;;;;;14.90;26.70;102113.38;5109952;27;20459;-76
2022/03/03 00:45:22;;;;;;;15.13;7.30;;;;;;;14.68;26.37;102113.53;5104633;27;20465;-76
2022/03/03 00:47:49;;;;;;;21.53;8.17;;;;;;;14.89;26.19;102103.72;5109207;27;20689;-76
2022/03/03 00:50:15;;;;;;;18.10;8.40;;;;;;;14.63;27.11;102102.19;5129055;27;20471;-76
2022/03/03 00:52:41;;;;;;;17.30;7.73;;;;;;;14.38;26.55;102111.94;5126512;27;20038;-76
2022/03/03 00:55:07;;;;;;;16.73;8.00;;;;;;;14.89;25.90;102104.63;5109803;27;20031;-77
2022/03/03 00:57:33;;;;;;;19.27;7.67;;;;;;;14.42;26.65;102101.41;5103929;27;20034;-77
2022/03/03 00:59:58;;;;;;;13.57;6.47;;;;;;;14.28;27.39;102107.63;5110225;27;20023;-76
2022/03/03 01:02:23;;;;;;;14.97;7.43;;;;;;;14.93;26.84;102097.56;5111386;27;20319;-77
2022/03/03 01:04:49;;;;;;;18.03;8.17;;;;;;;14.84;27.43;102102.91;5094618;27;20053;-77
2022/03/03 01:07:14;;;;;;;18.37;8.37;;;;;;;15.16;26.66;102093.88;5111002;27;20390;-76
2022/03/03 01:09:40;;;;;;;18.60;7.57;;;;;;;14.62;27.28;102097.75;5111407;27;20075;-76
2022/03/03 01:12:05;;;;;;;17.27;7.63;;;;;;;14.31;27.51;102097.94;5110646;27;20035;-76
2022/03/03 01:14:31;;;;;;;17.07;7.80;;;;;;;13.91;27.95;102087.63;5111788;27;20050;-77
2022/03/03 01:16:56;;;;;;;18.93;7.97;;;;;;;14.12;27.82;102086.63;5130847;27;20119;-77
2022/03/03 01:19:21;;;;;;;16.50;8.13;;;;;;;14.03;28.41;102077.03;5109899;27;20225;-77
2022/03/03 01:21:47;;;;;;;16.30;7.90;;;;;;;14.23;27.86;102068.16;5111804;27;20074;-77
2022/03/03 01:24:12;;;;;;;14.97;7.77;;;;;;;13.13;29.00;102075.50;5110173;27;20161;-77
2022/03/03 01:26:38;;;;;;;15.97;8.13;;;;;;;13.86;29.41;102073.59;5111517;28;20023;-76
2022/03/03 01:29:07;;;;;;;16.63;8.20;;;;;;;14.36;27.95;102075.13;5109759;27;20023;-77
2022/03/03 01:31:32;;;;;;;18.80;7.97;;;;;;;14.25;28.58;102062.03;5111550;28;20023;-77
2022/03/03 01:33:58;;;;;;;16.97;8.17;;;;;;;14.22;28.87;102067.31;5111683;28;20031;-76
2022/03/03 01:36:23;;;;;;;16.13;7.87;;;;;;;14.28;28.46;102058.50;5093036;27;20316;-76
2022/03/03 01:38:48;;;;;;;17.50;8.50;;;;;;;14.61;28.11;102053.03;5114964;27;20159;-77
2022/03/03 01:41:14;;;;;;;17.60;8.30;;;;;;;14.06;28.56;102050.72;5115477;27;20114;-76
2022/03/03 01:43:39;;;;;;;16.13;8.33;;;;;;;14.03;28.13;102048.13;5116907;27;20019;-76
2022/03/03 01:46:05;;;;;;;17.03;7.97;;;;;;;14.16;27.77;102045.44;5116166;27;20083;-77
2022/03/03 01:48:31;;;;;;;20.17;8.93;;;;;;;13.47;29.10;102043.97;5117198;27;20457;-77
2022/03/03 01:50:57;;;;;;;17.40;7.73;;;;;;;13.60;29.13;102040.44;5113033;27;20259;-76
2022/03/03 01:53:22;;;;;;;16.20;8.40;;;;;;;13.81;29.09;102038.63;5117786;27;20113;-76
2022/03/03 01:55:50;;;;;;;17.57;7.80;;;;;;;14.25;27.93;102040.13;5111472;27;20049;-76
2022/03/03 01:58:16;;;;;;;15.43;6.90;;;;;;;13.44;29.06;102039.59;5114388;27;21458;-76
2022/03/03 02:00:43;;;;;;;16.07;7.70;;;;;;;14.10;29.30;102035.81;5126801;27;20092;-77
2022/03/03 02:03:10;;;;;;;17.53;7.70;;;;;;;13.67;28.43;102041.25;5112509;27;20363;-77
2022/03/03 02:05:35;;;;;;;19.27;8.13;;;;;;;14.15;28.76;102033.16;5129455;27;20545;-77
2022/03/03 02:08:01;;;;;;;19.50;8.00;;;;;;;13.64;28.86;102026.41;5111674;27;20188;-76
2022/03/03 02:10:27;;;;;;;18.70;8.70;;;;;;;13.63;28.72;102031.66;5101828;27;20034;-76
2022/03/03 02:12:52;;;;;;;19.80;7.93;;;;;;;13.96;28.89;102017.50;5111858;27;20498;-77
2022/03/03 02:15:19;;;;;;;18.27;8.53;;;;;;;13.71;29.73;102022.88;5116354;27;20038;-77
2022/03/03 02:17:45;;;;;;;18.37;8.23;;;;;;;13.37;30.07;102012.47;5132745;27;20033;-77
2022/03/03 02:20:21;;;;;;;16.50;8.13;;;;;;;13.93;29.19;102016.63;5113683;27;20402;-77
2022/03/03 02:22:48;;;;;;;16.17;8.00;;;;;;;14.24;28.51;102012.94;5114448;27;20447;-76
2022/03/03 02:25:14;;;;;;;19.60;8.60;;;;;;;14.04;29.32;102015.72;5134648;27;20027;-76
2022/03/03 02:27:40;;;;;;;16.87;7.93;;;;;;;14.28;29.28;102008.53;5117085;27;20107;-76
2022/03/03 02:30:06;;;;;;;19.47;8.33;;;;;;;13.22;29.57;102020.38;5113345;27;20035;-77
2022/03/03 02:32:32;;;;;;;16.87;8.07;;;;;;;13.46;29.62;102021.22;5114640;27;20030;-76
2022/03/03 02:34:57;;;;;;;19.90;8.60;;;;;;;13.58;29.43;102016.78;5116487;27;20034;-76
2022/03/03 02:37:24;;;;;;;23.20;9.07;;;;;;;13.89;28.86;102010.53;5113747;27;20229;-76
2022/03/03 02:39:49;;;;;;;21.40;8.30;;;;;;;12.69;30.49;102009.94;5114586;27;20028;-76
2022/03/03 02:42:14;;;;;;;16.87;8.67;;;;;;;13.06;30.36;102011.63;5133035;27;20039;-77
2022/03/03 02:44:40;;;;;;;18.60;8.87;;;;;;;13.17;29.76;102009.00;5134437;27;20516;-76
2022/03/03 02:47:05;;;;;;;20.07;8.80;;;;;;;13.27;29.88;102008.13;5108789;27;20134;-76
2022/03/03 02:49:31;;;;;;;16.27;8.07;;;;;;;13.14;30.38;102002.00;5113210;27;20027;-77
2022/03/03 02:51:56;;;;;;;19.07;8.07;;;;;;;13.19;30.21;102004.63;5127731;27;20038;-77
2022/03/03 02:54:21;;;;;;;17.40;7.77;;;;;;;12.88;30.07;102002.03;5121800;27;20114;-77
2022/03/03 02:59:31;;;;;;;20.13;8.87;;;;;;;13.27;29.85;101999.34;5124712;27;20169;-76
2022/03/03 03:01:56;;;;;;;21.00;9.27;;;;;;;13.54;29.59;101998.41;5108067;27;20533;-77
2022/03/03 03:04:21;;;;;;;19.97;8.87;;;;;;;13.54;29.71;102001.03;5100765;27;20022;-76
2022/03/03 03:06:47;;;;;;;17.50;8.47;;;;;;;12.63;31.20;101991.56;5112066;27;20026;-76
2022/03/03 03:09:12;;;;;;;19.57;8.33;;;;;;;13.77;29.90;102000.94;5113552;27;20089;-76
2022/03/03 03:11:38;;;;;;;19.73;8.43;;;;;;;13.59;29.60;101999.28;5114722;27;20023;-76
2022/03/03 03:14:04;;;;;;;21.20;8.93;;;;;;;13.33;30.49;101991.47;5107111;27;20098;-76
2022/03/03 03:16:30;;;;;;;21.17;8.43;;;;;;;13.34;30.43;101999.34;5114906;27;20060;-76
2022/03/03 03:18:55;;;;;;;21.03;8.50;;;;;;;12.98;30.33;101988.06;5133037;27;20396;-76
2022/03/03 03:21:21;;;;;;;21.63;9.47;;;;;;;12.92;30.37;101990.66;5131447;27;20058;-76
2022/03/03 03:23:46;;;;;;;18.27;8.73;;;;;;;12.58;31.61;101993.31;5114828;27;20027;-76
2022/03/03 03:26:11;;;;;;;19.73;9.00;;;;;;;12.84;31.22;101989.81;5131617;27;20110;-77
2022/03/03 03:28:37;;;;;;;18.43;9.20;;;;;;;12.68;30.94;101989.81;5102677;27;20122;-76
2022/03/03 03:31:02;;;;;;;18.00;8.77;;;;;;;12.90;30.21;101995.06;5101911;27;20412;-76
2022/03/03 03:33:27;;;;;;;20.40;9.27;;;;;;;13.09;30.40;101981.88;5113926;27;20025;-76
2022/03/03 03:35:53;;;;;;;23.00;9.17;;;;;;;12.90;31.23;101981.94;5105375;27;20031;-76
2022/03/03 03:38:18;;;;;;;21.70;9.70;;;;;;;12.75;31.01;101979.31;5113413;27;20023;-76
2022/03/03 03:40:43;;;;;;;20.40;8.90;;;;;;;12.81;31.20;101974.94;5102073;28;20114;-76
2022/03/03 03:43:09;;;;;;;21.80;10.27;;;;;;;12.54;31.75;101976.72;5109433;27;20042;-76
2022/03/03 03:45:35;;;;;;;25.97;10.27;;;;;;;11.66;33.74;101976.53;5113573;27;20029;-77
2022/03/03 03:48:01;;;;;;;19.57;9.30;;;;;;;12.20;32.68;101974.06;5130134;27;20026;-77
2022/03/03 03:50:28;;;;;;;20.90;9.97;;;;;;;12.22;32.31;101968.81;5112002;27;20023;-76
2022/03/03 03:52:54;;;;;;;21.40;9.47;;;;;;;12.96;31.42;101954.81;5130291;27;20027;-76
2022/03/03 03:55:20;;;;;;;19.07;9.00;;;;;;;12.90;31.19;101959.19;5112271;27;20029;-76
2022/03/03 03:57:45;;;;;;;21.13;9.37;;;;;;;12.76;32.46;101970.56;5114034;27;20047;-77
2022/03/03 04:00:14;;;;;;;23.13;10.33;;;;;;;13.46;30.67;101960.81;5131209;27;20073;-76
2022/03/03 04:02:40;;;;;;;20.30;10.13;;;;;;;12.80;31.98;101962.69;5112170;27;20448;-76
2022/03/03 04:05:06;;;;;;;24.53;10.67;;;;;;;12.76;31.70;101960.06;5113355;27;20058;-76
2022/03/03 04:07:31;;;;;;;26.70;10.77;;;;;;;12.86;31.48;101961.81;5114251;27;20069;-76
2022/03/03 04:09:57;;;;;;;19.90;9.20;;;;;;;12.31;32.22;101958.34;5111710;27;20037;-76
2022/03/03 04:12:22;;;;;;;22.00;9.53;;;;;;;13.09;30.98;101958.25;5112057;27;20088;-76
2022/03/03 04:14:47;;;;;;;20.83;9.97;;;;;;;13.48;30.73;101964.31;5109297;27;20123;-76
2022/03/03 04:17:13;;;;;;;22.17;9.87;;;;;;;13.49;30.98;101960.78;5112664;27;20035;-76
2022/03/03 04:19:38;;;;;;;23.90;9.87;;;;;;;13.56;30.17;101959.91;5113304;27;20026;-77
2022/03/03 04:22:04;;;;;;;23.43;10.23;;;;;;;12.48;32.19;101965.34;5113082;27;20138;-76
2022/03/03 04:24:30;;;;;;;18.87;9.50;;;;;;;12.08;32.16;101965.31;5102769;27;20428;-77
2022/03/03 04:26:56;;;;;;;20.27;9.90;;;;;;;12.37;32.80;101963.56;5104014;27;20038;-76
2022/03/03 04:29:22;;;;;;;22.60;10.53;;;;;;;12.46;31.91;101967.06;5112450;27;20122;-76
2022/03/03 04:31:49;;;;;;;20.87;9.40;;;;;;;13.21;31.26;101969.59;5131316;27;20027;-77
2022/03/03 04:34:14;;;;;;;21.77;9.53;;;;;;;13.18;30.69;101960.88;5112165;27;20088;-76
2022/03/03 04:36:39;;;;;;;25.33;10.07;;;;;;;12.54;32.25;101965.31;5112702;27;20023;-76
2022/03/03 04:39:05;;;;;;;19.97;9.50;;;;;;;12.81;31.71;101963.56;5111381;27;20158;-76
2022/03/03 04:41:30;;;;;;;26.07;11.33;;;;;;;13.37;31.02;101965.22;5097044;27;20027;-76
2022/03/03 04:43:55;;;;;;;26.73;11.07;;;;;;;13.20;31.10;101962.63;5131390;27;20515;-76
2022/03/03 04:46:21;;;;;;;26.47;10.93;;;;;;;12.90;31.38;101959.19;5110780;27;20473;-76
2022/03/03 04:48:46;;;;;;;25.33;11.57;;;;;;;12.64;31.93;101961.84;5112455;27;20462;-76
2022/03/03 04:51:11;;;;;;;19.53;9.53;;;;;;;12.54;32.18;101957.47;5129859;27;20035;-77
2022/03/03 04:53:37;;;;;;;23.33;10.67;;;;;;;12.96;31.33;101958.28;5112378;27;20023;-76
2022/03/03 04:56:02;;;;;;;25.60;10.20;;;;;;;12.64;31.85;101959.22;5108986;27;20023;-76
2022/03/03 04:58:28;;;;;;;23.87;10.03;;;;;;;12.76;31.55;101949.59;5109336;27;20031;-77
2022/03/03 05:00:53;;;;;;;23.67;10.73;;;;;;;12.66;31.88;101952.22;5129486;27;20102;-77
2022/03/03 05:03:19;;;;;;;25.43;11.50;;;;;;;11.97;32.78;101952.19;5129595;27;20054;-76
2022/03/03 05:05:44;;;;;;;23.47;9.90;;;;;;;11.95;33.07;101949.56;5112048;27;20470;-76
2022/03/03 05:08:10;;;;;;;24.87;11.20;;;;;;;12.05;32.50;101942.59;5108533;27;20058;-76
2022/03/03 05:10:35;;;;;;;21.13;10.10;;;;;;;12.48;32.05;101947.00;5111592;27;20031;-76
2022/03/03 05:13:01;;;;;;;22.80;10.60;;;;;;;12.28;32.75;101940.00;5111862;27;20057;-76
2022/03/03 05:15:27;;;;;;;27.20;11.43;;;;;;;12.54;32.46;101944.34;5112353;27;20386;-77
2022/03/03 05:17:53;;;;;;;24.67;10.80;;;;;;;12.30;31.75;101940.00;5111356;27;20023;-77
2022/03/03 05:20:18;;;;;;;24.57;10.10;;;;;;;12.34;32.38;101947.84;5111677;28;20031;-77
2022/03/03 05:22:43;;;;;;;22.80;9.77;;;;;;;12.59;32.11;101942.59;5111511;27;20076;-76
2022/03/03 05:25:12;;;;;;;20.10;9.37;;;;;;;12.24;31.75;101937.34;5128991;27;20478;-77
2022/03/03 05:27:39;;;;;;;22.93;11.03;;;;;;;12.60;31.39;101939.13;5128742;27;20155;-76
2022/03/03 05:30:06;;;;;;;24.37;11.30;;;;;;;12.27;31.82;101934.72;5109602;27;20023;-77
2022/03/03 05:32:31;;;;;;;26.37;10.53;;;;;;;12.26;32.31;101941.72;5109915;27;20161;-76
2022/03/03 05:34:57;;;;;;;24.97;11.07;;;;;;;12.29;31.46;101938.25;5129347;28;20125;-76
2022/03/03 05:37:24;;;;;;;23.63;10.53;;;;;;;12.41;32.24;101943.50;5110400;28;20075;-77
2022/03/03 05:39:51;;;;;;;22.57;10.53;;;;;;;11.92;33.33;101944.25;5112129;28;20050;-77
2022/03/03 05:42:19;;;;;;;20.93;9.83;;;;;;;12.20;32.27;101939.13;5110833;28;20101;-76
2022/03/03 05:44:49;;;;;;;24.47;9.97;;;;;;;12.00;32.16;101942.56;5111877;28;20115;-77
2022/03/03 05:47:15;;;;;;;22.93;10.13;;;;;;;12.20;32.97;101939.13;5111118;27;20059;-76
2022/03/03 05:49:43;;;;;;;24.77;10.17;;;;;;;11.80;33.59;101949.47;5110844;28;20035;-76
2022/03/03 05:52:09;;;;;;;23.63;10.53;;;;;;;12.32;32.36;101951.34;5109171;28;20535;-77
2022/03/03 05:54:35;;;;;;;23.83;9.97;;;;;;;12.48;32.34;101954.84;5129599;27;20023;-76
2022/03/03 05:57:02;;;;;;;23.77;9.93;;;;;;;12.47;31.96;101947.84;5129392;28;20497;-77
2022/03/03 05:59:32;;;;;;;22.27;10.80;;;;;;;12.47;32.29;101942.59;5110429;28;20019;-77
2022/03/03 06:01:58;;;;;;;24.87;10.70;;;;;;;12.18;32.28;101946.09;5110899;28;20088;-77
2022/03/03 06:04:27;;;;;;;19.90;9.73;;;;;;;12.66;32.23;101949.59;5113571;27;20034;-76
2022/03/03 06:06:59;;;;;;;22.60;9.93;;;;;;;12.27;32.55;101948.72;5109029;28;20072;-76
2022/03/03 06:09:30;;;;;;;24.77;10.00;;;;;;;11.87;33.21;101956.50;5108560;28;20042;-76
2022/03/03 06:12:26;;;;;;;28.57;10.33;;;;;;;12.59;32.05;101953.09;5109149;28;20447;-77
2022/03/03 06:15:00;;;;;;;25.40;11.00;;;;;;;12.63;31.76;101949.59;5110468;28;20072;-77
2022/03/03 06:17:25;;;;;;;27.93;10.77;;;;;;;11.99;32.26;101956.56;5110456;28;20034;-76
2022/03/03 06:19:52;;;;;;;26.10;10.73;;;;;;;11.89;33.09;101952.97;5129884;28;20019;-77
2022/03/03 06:22:18;;;;;;;27.47;10.77;;;;;;;12.23;32.53;101965.31;5129143;27;20063;-76
2022/03/03 06:24:44;;;;;;;24.90;11.37;;;;;;;11.99;32.35;101956.56;5115057;27;20117;-77
2022/03/03 06:27:09;;;;;;;25.27;11.00;;;;;;;11.93;33.62;101961.75;5114766;27;20153;-76
2022/03/03 06:29:38;;;;;;;26.93;10.63;;;;;;;12.00;33.03;101952.19;5114282;27;20023;-77
2022/03/03 06:32:07;;;;;;;26.40;11.00;;;;;;;11.80;33.19;101954.72;5114593;27;20031;-77
2022/03/03 06:34:32;;;;;;;24.37;10.77;;;;;;;11.90;33.62;101956.50;5114461;27;20026;-77
2022/03/03 06:36:58;;;;;;;21.73;10.07;;;;;;;11.66;33.37;101958.19;5114475;27;20407;-77
2022/03/03 06:39:23;;;;;;;23.33;9.90;;;;;;;11.65;33.31;101961.66;5115378;27;20041;-77
2022/03/03 06:41:49;;;;;;;25.10;10.67;;;;;;;12.16;32.74;101951.34;5113207;27;20019;-77
2022/03/03 06:44:14;;;;;;;27.20;11.13;;;;;;;11.92;32.91;101959.13;5112769;27;20419;-77
2022/03/03 06:46:40;;;;;;;26.97;10.73;;;;;;;12.08;32.79;101953.06;5132430;27;20023;-77
2022/03/03 06:49:05;;;;;;;24.57;10.80;;;;;;;12.25;32.78;101960.94;5113567;27;20030;-77
2022/03/03 06:51:40;;;;;;;23.50;9.70;;;;;;;12.16;33.02;101959.19;5113574;27;20031;-77
2022/03/03 06:54:07;;;;;;;24.37;10.87;;;;;;;11.72;33.14;101967.81;5112940;27;20031;-77
2022/03/03 06:56:35;;;;;;;26.43;11.53;;;;;;;11.91;33.66;101963.50;5113712;27;20506;-77
2022/03/03 06:59:01;;;;;;;21.93;11.27;;;;;;;12.31;32.40;101960.06;5112661;27;20037;-76
2022/03/03 07:01:28;;;;;;;22.20;10.70;;;;;;;12.37;32.64;101968.81;5111985;27;20087;-77
2022/03/03 07:03:55;;;;;;;25.10;10.80;;;;;;;12.29;32.47;101965.31;5113078;27;20027;-76
2022/03/03 07:06:21;;;;;;;25.80;11.73;;;;;;;12.31;32.67;101974.06;5111349;27;20046;-76
2022/03/03 07:08:49;;;;;;;22.30;11.50;;;;;;;11.70;33.56;101985.25;5113353;27;20023;-76
2022/03/03 07:11:16;;;;;;;25.00;10.40;;;;;;;12.28;32.56;101975.81;5130265;27;20030;-77
2022/03/03 07:13:43;;;;;;;26.40;10.30;;;;;;;12.49;32.61;101977.59;5113351;27;20055;-77
2022/03/03 07:16:23;;;;;;;23.33;10.07;;;;;;;12.52;32.54;101977.59;5113983;27;20027;-77
2022/03/03 07:18:53;;;;;;;29.20;11.57;;;;;;;12.56;32.39;101979.34;5112579;27;20038;-77
2022/03/03 07:21:24;;;;;;;23.30;10.97;;;;;;;12.39;34.14;101969.72;5132272;27;20050;-77
2022/03/03 07:24:03;;;;;;;30.80;11.10;;;;;;;12.27;32.99;101980.19;5114794;27;20062;-77
2022/03/03 07:26:31;;;;;;;23.50;10.20;;;;;;;12.60;32.80;101981.06;5113732;27;20110;-77
2022/03/03 07:29:00;;;;;;;25.70;12.00;;;;;;;12.89;32.01;101985.44;5116841;27;20023;-76
2022/03/03 07:31:28;;;;;;;30.10;12.37;;;;;;;12.49;32.27;101980.22;5115325;27;20038;-77
2022/03/03 07:33:58;;;;;;;30.53;12.63;;;;;;;12.62;32.26;101984.56;5114929;27;20026;-77
2022/03/03 07:36:27;;;;;;;22.70;11.83;;;;;;;12.55;32.79;101974.94;5116071;27;20095;-76
2022/03/03 07:39:01;;;;;;;25.93;10.43;;;;;;;12.83;32.05;101988.03;5116393;27;20115;-76
2022/03/03 07:41:28;;;;;;;28.20;10.93;;;;;;;13.87;31.12;101978.97;5115929;27;20023;-76
2022/03/03 07:43:56;;;;;;;28.07;11.13;;;;;;;15.21;29.97;101978.81;5116949;27;20019;-78
2022/03/03 07:46:23;;;;;;;24.23;10.67;;;;;;;16.42;28.85;101981.56;5116388;27;20021;-77
2022/03/03 07:48:51;;;;;;;23.53;10.87;;;;;;;15.74;26.87;101987.81;5116300;27;20029;-77
2022/03/03 07:51:17;;;;;;;20.13;10.03;;;;;;;15.24;28.24;101984.03;5112251;27;20058;-77
2022/03/03 07:53:43;;;;;;;27.50;10.70;;;;;;;15.04;28.39;101989.50;5112409;27;20037;-77
2022/03/03 07:56:09;;;;;;;19.97;9.73;;;;;;;14.59;28.64;101995.19;5112365;27;20049;-77
2022/03/03 07:58:41;;;;;;;21.80;10.33;;;;;;;14.63;29.00;101983.78;5112751;27;20027;-77
2022/03/03 08:01:08;;;;;;;22.70;10.75;;;;;;;13.63;30.29;101987.88;5113634;27;20027;-77
2022/03/03 08:03:34;;;;;;;23.10;11.00;;;;;;;14.03;29.76;101992.91;5114074;27;20435;-77
2022/03/03 08:06:01;;;;;;;24.43;10.93;;;;;;;14.23;29.58;101984.03;5112779;27;20026;-77
2022/03/03 08:08:30;;;;;;;22.93;10.60;;;;;;;14.22;29.95;101990.19;5129274;27;20231;-77
2022/03/03 08:11:03;;;;;;;20.93;10.23;;;;;;;13.86;30.40;101989.50;5131132;27;20029;-77
2022/03/03 08:13:30;;;;;;;28.57;12.40;;;;;;;12.80;31.87;101995.94;5114109;27;20038;-77
2022/03/03 08:15:57;;;;;;;24.17;11.63;;;;;;;13.57;30.93;101994.03;5113148;27;20035;-77
2022/03/03 08:18:32;;;;;;;25.03;12.07;;;;;;;13.43;31.29;101995.81;5131384;27;20060;-77
2022/03/03 08:21:00;;;;;;;27.43;12.50;;;;;;;12.41;32.85;102001.19;5130150;27;20095;-77
2022/03/03 08:23:26;;;;;;;21.57;9.23;;;;;;;11.92;32.96;102001.03;5130804;27;20019;-77
2022/03/03 08:25:54;;;;;;;21.63;10.07;;;;;;;12.53;32.51;101990.69;5111804;27;20022;-76
2022/03/03 08:28:23;;;;;;;24.67;10.70;;;;;;;12.20;32.06;101991.53;5113184;27;20019;-77
2022/03/03 08:30:50;;;;;;;24.47;11.37;;;;;;;14.06;29.94;101992.91;5100409;27;20022;-77
2022/03/03 08:33:19;;;;;;;26.07;10.53;;;;;;;13.30;30.81;102005.47;5113708;27;20087;-77
2022/03/03 08:35:59;;;;;;;24.97;10.53;;;;;;;13.04;30.77;102009.03;5113868;27;20011;-76
2022/03/03 08:38:37;;;;;;;25.50;11.43;;;;;;;13.66;30.42;102003.63;5111241;27;20034;-77
2022/03/03 08:41:04;;;;;;;22.20;10.50;;;;;;;13.78;30.20;102012.31;5113741;27;20550;-77
2022/03/03 08:43:33;;;;;;;23.27;9.97;;;;;;;14.22;29.48;102008.59;5129954;27;20541;-77
2022/03/03 08:46:08;;;;;;;23.57;11.13;;;;;;;13.87;29.72;102002.63;5110866;27;20054;-77
2022/03/03 08:48:34;;;;;;;21.33;10.00;;;;;;;14.65;28.91;102003.03;5112457;27;20110;-76
2022/03/03 08:51:01;;;;;;;25.13;10.73;;;;;;;13.51;30.41;102014.19;5111759;27;20022;-76
2022/03/03 08:53:26;;;;;;;20.30;9.87;;;;;;;13.41;30.79;102008.09;5112001;27;20031;-76
2022/03/03 08:55:58;;;;;;;23.20;10.63;;;;;;;14.05;30.25;102001.69;5114087;27;20389;-75
2022/03/03 08:58:24;;;;;;;21.80;10.77;;;;;;;14.38;29.48;102004.97;5112387;27;20485;-75
2022/03/03 09:00:50;;;;;;;20.77;10.20;;;;;;;14.39;29.29;101996.19;5089647;28;20019;-75
2022/03/03 09:03:21;;;;;;;22.23;10.57;;;;;;;13.63;29.99;102003.66;5107150;27;20583;-75
2022/03/03 09:05:47;;;;;;;24.07;11.00;;;;;;;14.51;29.19;102002.25;5111803;27;20035;-75
2022/03/03 09:08:12;;;;;;;16.17;9.23;;;;;;;13.87;29.50;102001.78;5130868;27;20054;-75
2022/03/03 09:10:37;;;;;;;22.27;10.57;;;;;;;14.52;29.02;102001.34;5131500;27;20030;-75
2022/03/03 09:13:06;;;;;;;23.57;10.40;;;;;;;13.73;30.02;101996.59;5111830;27;20103;-75
2022/03/03 09:15:33;;;;;;;26.07;10.43;;;;;;;15.15;28.28;101998.16;5111212;27;20386;-75
2022/03/03 09:17:59;;;;;;;22.80;10.63;;;;;;;15.06;28.13;102004.41;5111147;27;20026;-75
2022/03/03 09:20:24;;;;;;;20.83;10.33;;;;;;;14.22;28.99;102003.34;5128151;27;20030;-75
2022/03/03 09:22:50;;;;;;;22.20;10.30;;;;;;;14.63;28.76;101999.56;5110821;27;20528;-75
2022/03/03 09:25:15;;;;;;;18.33;9.83;;;;;;;15.05;28.12;101997.38;5110544;27;20062;-75
2022/03/03 09:27:41;;;;;;;17.53;9.27;;;;;;;15.44;27.60;101995.22;5129413;27;20027;-75
2022/03/03 09:30:08;;;;;;;20.33;10.03;;;;;;;17.15;25.69;101992.69;5128725;27;20027;-76
2022/03/03 09:32:34;;;;;;;23.13;10.83;;;;;;;17.33;24.35;101992.31;5110401;28;20027;-75
2022/03/03 09:34:59;;;;;;;29.00;9.63;;;;;;;19.60;22.30;101991.22;5111005;28;20019;-75
2022/03/03 09:37:24;;;;;;;18.00;9.50;;;;;;;19.88;21.35;101977.16;5111003;28;20187;-75
2022/03/03 09:39:50;;;;;;;18.97;9.77;;;;;;;20.35;21.22;101977.44;5112781;28;20023;-75
2022/03/03 09:42:16;;;;;;;19.03;9.70;;;;;;;20.72;20.97;101970.91;5112379;28;20023;-75
2022/03/03 09:44:42;;;;;;;17.73;9.83;;;;;;;20.29;21.75;101974.97;5113484;28;20023;-75
2022/03/03 09:47:11;;;;;;;18.53;9.40;;;;;;;22.11;19.52;101978.19;5111162;28;20083;-75
2022/03/03 09:49:36;;;;;;;20.67;10.07;;;;;;;22.32;19.09;101973.75;5112861;28;20456;-75
2022/03/03 09:52:11;;;;;;;17.30;9.52;;;;;;;22.81;18.62;101970.84;5112311;28;20114;-76
2022/03/03 09:54:36;;;;;;;16.67;9.52;;;;;;;23.38;18.56;101970.97;5112617;28;20031;-75
2022/03/03 09:57:02;;;;;;;16.45;9.10;;;;;;;23.81;18.04;101958.28;5114811;27;20017;-75
2022/03/03 09:59:27;;;;;;;17.27;10.13;;;;;;;21.64;18.97;101974.66;5116588;27;20121;-75
2022/03/03 10:02:01;;;;;;;17.05;9.43;;;;;;;21.42;19.47;101971.03;5116191;27;20075;-76
2022/03/03 10:04:27;;;;;;;17.65;9.65;;;;;;;20.92;19.84;101971.97;5116323;27;20071;-75
2022/03/03 10:06:52;;;;;;;19.15;9.20;;;;;;;22.13;19.61;101969.19;5134707;27;20031;-75
2022/03/03 10:09:18;;;;;;;16.83;9.63;;;;;;;23.18;18.51;101964.75;5115885;27;20030;-75
2022/03/03 10:12:02;;;;;;;17.15;9.88;;;;;;;23.75;17.73;101969.25;5135009;27;20062;-75
2022/03/03 10:14:30;;;;;;;14.57;8.68;;;;;;;23.13;18.45;101960.56;5115771;27;20023;-75
2022/03/03 10:16:55;;;;;;;13.90;8.48;;;;;;;24.54;16.48;101958.25;5115507;27;20049;-75
2022/03/03 10:19:21;;;;;;;19.48;9.55;;;;;;;24.17;17.11;101965.44;5116022;27;20058;-75
2022/03/03 10:21:46;;;;;;;18.45;10.55;;;;;;;23.95;17.05;101962.13;5115552;27;20142;-75
2022/03/03 10:24:26;;;;;;;17.02;9.18;;;;;;;21.99;18.51;101968.88;5115341;27;20030;-76
2022/03/03 10:27:01;;;;;;;15.40;9.07;;;;;;;22.69;18.23;101970.41;5115914;27;20493;-75
2022/03/03 10:29:27;;;;;;;15.30;8.75;;;;;;;20.92;19.43;101978.16;5133302;27;20545;-75
2022/03/03 10:31:55;;;;;;;17.45;9.57;;;;;;;22.05;18.30;101968.66;5116277;27;20531;-75
2022/03/03 10:34:28;;;;;;;18.27;9.23;;;;;;;22.53;18.22;101956.00;5115345;27;20023;-75
2022/03/03 10:36:57;;;;;;;18.83;8.50;;;;;;;20.54;19.02;101968.81;5114912;27;20080;-76
2022/03/03 10:39:23;;;;;;;15.57;9.10;;;;;;;20.84;19.52;101970.47;5115888;27;20064;-75
2022/03/03 10:41:53;;;;;;;17.13;9.52;;;;;;;20.72;19.56;101959.38;5116180;27;20399;-75
2022/03/03 10:44:28;;;;;;;17.73;8.88;;;;;;;20.49;19.63;101959.22;5113819;27;20031;-74
2022/03/03 10:47:08;;;;;;;14.48;8.50;;;;;;;20.97;19.07;101960.25;5134240;27;20027;-75
2022/03/03 10:49:39;;;;;;;15.40;8.68;;;;;;;21.84;18.64;101957.94;5115389;27;20023;-75
2022/03/03 10:52:17;;;;;;;19.00;9.10;;;;;;;21.93;18.34;101950.50;5132713;27;20027;-76
2022/03/03 10:55:06;;;;;;;14.40;7.78;;;;;;;19.94;19.80;101955.75;5116156;27;20368;-75
2022/03/03 10:57:44;;;;;;;17.50;8.68;;;;;;;21.05;19.15;101960.00;5115151;27;20019;-75
2022/03/03 11:00:11;;;;;;;14.95;8.77;;;;;;;20.54;19.03;101955.56;5115127;27;20490;-75
2022/03/03 11:02:38;;;;;;;15.18;9.27;;;;;;;23.25;17.16;101949.34;5115572;27;20111;-75
2022/03/03 11:05:05;;;;;;;16.73;9.15;;;;;;;24.92;16.13;101940.31;5114644;27;20019;-75
2022/03/03 11:07:31;;;;;;;14.35;8.30;;;;;;;21.12;18.61;101953.53;5115606;27;20079;-75
2022/03/03 11:09:57;;;;;;;13.90;8.18;;;;;;;22.24;18.08;101951.91;5114340;27;20027;-75
2022/03/03 11:12:22;;;;;;;16.05;9.60;;;;;;;21.40;18.35;101946.31;5114062;27;20027;-75
2022/03/03 11:14:48;;;;;;;17.75;9.07;;;;;;;22.98;17.69;101940.75;5115508;27;20466;-75
2022/03/03 11:17:14;;;;;;;15.20;8.20;;;;;;;23.52;17.37;101952.53;5133097;27;20033;-75